Time;durP1;ratioP1;P1;durP2;ratioP2;P2;SDS_P1;SDS_P2;PMS_P1;PMS_P2;Temp;Humidity;BMP_temperature;BMP_pressure;BME280_temperature;BME280_humidity;BME280_pressure;Samples;Min_cycle;Max_cycle;Signal;HPM_P1;HPM_P2
2023/11/18 00:01:15;;;;;;;0.10;0.10;;;;;;;;;;5129641;28;20407;-92
2023/11/18 00:03:43;;;;;;;0.10;0.10;;;;;;;;;;5110424;28;20051;-92
2023/11/18 00:06:11;;;;;;;0.10;0.10;;;;;;;;;;5129023;28;20050;-92
2023/11/18 00:08:39;;;;;;;0.10;0.10;;;;;;;;;;5129426;28;20047;-92
2023/11/18 00:11:07;;;;;;;0.13;0.13;;;;;;;;;;5111054;28;20052;-93
2023/11/18 00:13:34;;;;;;;0.17;0.17;;;;;;;;;;5126939;28;20059;-92
2023/11/18 00:19:23;;;;;;;0.10;0.10;;;;;;;;;;5131196;28;20408;-92
2023/11/18 00:21:53;;;;;;;0.10;0.10;;;;;;;;;;5128370;28;20112;-91
2023/11/18 00:24:21;;;;;;;0.10;0.10;;;;;;;;;;5129650;28;20058;-91
2023/11/18 00:26:50;;;;;;;0.10;0.10;;;;;;;;;;5129009;28;20058;-91
2023/11/18 00:29:18;;;;;;;0.10;0.10;;;;;;;;;;5111254;28;20116;-92
2023/11/18 00:31:47;;;;;;;0.10;0.10;;;;;;;;;;5111695;28;20059;-92
2023/11/18 00:37:36;;;;;;;0.10;0.10;;;;;;;;;;5128459;28;20030;-91
2023/11/18 00:40:35;;;;;;;0.20;0.20;;;;;;;;;;5132267;28;20082;-91
2023/11/18 00:43:03;;;;;;;0.13;0.13;;;;;;;;;;5132622;28;20431;-91
2023/11/18 00:45:30;;;;;;;0.17;0.17;;;;;;;;;;5114953;28;20437;-90
2023/11/18 00:47:58;;;;;;;0.20;0.20;;;;;;;;;;5132520;28;20399;-91
2023/11/18 00:50:26;;;;;;;0.10;0.10;;;;;;;;;;5115777;28;20051;-91
2023/11/18 00:52:54;;;;;;;0.15;0.15;;;;;;;;;;5132035;28;20134;-91
2023/11/18 00:55:22;;;;;;;0.70;0.70;;;;;;;;;;5114633;28;20333;-91
2023/11/18 00:57:51;;;;;;;0.30;0.30;;;;;;;;;;5113235;28;20048;-92
2023/11/18 01:00:21;;;;;;;0.68;0.68;;;;;;;;;;5113774;28;20047;-90
2023/11/18 01:02:49;;;;;;;0.00;0.00;;;;;;;;;;5114364;28;20031;-91
2023/11/18 01:05:19;;;;;;;0.20;0.20;;;;;;;;;;5135251;28;20066;-90
2023/11/18 01:07:48;;;;;;;0.10;0.10;;;;;;;;;;5113819;28;20051;-91
2023/11/18 01:10:16;;;;;;;0.10;0.10;;;;;;;;;;5112375;28;20079;-91
2023/11/18 01:12:46;;;;;;;0.10;0.10;;;;;;;;;;5131023;28;20047;-90
2023/11/18 01:15:23;;;;;;;0.10;0.10;;;;;;;;;;5132620;28;20047;-91
2023/11/18 01:17:51;;;;;;;0.10;0.10;;;;;;;;;;5114814;28;20043;-91
2023/11/18 01:20:22;;;;;;;0.20;0.20;;;;;;;;;;5112689;28;20047;-92
2023/11/18 01:22:50;;;;;;;0.03;0.03;;;;;;;;;;5112650;28;20134;-91
2023/11/18 01:25:18;;;;;;;0.10;0.10;;;;;;;;;;5132352;28;20067;-90
2023/11/18 01:27:48;;;;;;;0.17;0.17;;;;;;;;;;5112846;27;20053;-91
2023/11/18 01:30:15;;;;;;;0.10;0.10;;;;;;;;;;5113604;28;20055;-91
2023/11/18 01:32:44;;;;;;;0.10;0.10;;;;;;;;;;5129316;28;20043;-91
2023/11/18 01:35:12;;;;;;;0.00;0.00;;;;;;;;;;5113879;28;20059;-91
2023/11/18 01:37:40;;;;;;;0.10;0.10;;;;;;;;;;5130845;28;20124;-91
2023/11/18 01:40:07;;;;;;;0.10;0.10;;;;;;;;;;5130672;28;20070;-90
2023/11/18 01:42:38;;;;;;;0.10;0.10;;;;;;;;;;5131960;28;20044;-91
2023/11/18 01:47:50;;;;;;;0.10;0.10;;;;;;;;;;5312065;22;20068;-92
2023/11/18 01:53:56;;;;;;;0.10;0.10;;;;;;;;;;5129771;28;20075;-91
2023/11/18 01:56:25;;;;;;;0.00;0.00;;;;;;;;;;5111719;28;20081;-91
2023/11/18 01:58:58;;;;;;;0.10;0.10;;;;;;;;;;5113359;28;20055;-92
2023/11/18 02:01:27;;;;;;;0.00;0.00;;;;;;;;;;5113104;28;20066;-91
2023/11/18 02:03:55;;;;;;;0.10;0.10;;;;;;;;;;5112928;28;20051;-92
2023/11/18 02:06:23;;;;;;;0.40;0.40;;;;;;;;;;5131076;28;20110;-91
2023/11/18 02:08:51;;;;;;;0.10;0.10;;;;;;;;;;5131046;28;20107;-91
2023/11/18 02:11:34;;;;;;;0.20;0.20;;;;;;;;;;5131609;28;20112;-91
2023/11/18 02:14:03;;;;;;;0.10;0.10;;;;;;;;;;5131249;28;20058;-92
2023/11/18 02:16:31;;;;;;;0.10;0.10;;;;;;;;;;5112165;28;20055;-90
2023/11/18 02:18:58;;;;;;;0.10;0.10;;;;;;;;;;5130635;28;20071;-91
2023/11/18 02:21:26;;;;;;;0.10;0.10;;;;;;;;;;5129792;28;20048;-91
2023/11/18 02:23:53;;;;;;;0.10;0.10;;;;;;;;;;5131163;28;20048;-91
2023/11/18 02:26:21;;;;;;;2.60;2.28;;;;;;;;;;5130478;28;20043;-92
2023/11/18 02:28:49;;;;;;;0.20;0.20;;;;;;;;;;5112055;28;20067;-91
2023/11/18 02:31:24;;;;;;;0.10;0.10;;;;;;;;;;5113979;28;20051;-89
2023/11/18 02:33:59;;;;;;;0.10;0.10;;;;;;;;;;5114451;28;20262;-92
2023/11/18 02:36:36;;;;;;;0.10;0.10;;;;;;;;;;5118731;27;20031;-92
2023/11/18 02:39:10;;;;;;;5.18;3.85;;;;;;;;;;5121211;28;20080;-92
2023/11/18 02:41:39;;;;;;;0.10;0.10;;;;;;;;;;5113024;28;20137;-92
2023/11/18 02:44:23;;;;;;;0.10;0.10;;;;;;;;;;5131517;27;20120;-91
2023/11/18 02:46:50;;;;;;;0.10;0.10;;;;;;;;;;5130796;28;20462;-91
2023/11/18 02:49:18;;;;;;;0.08;0.08;;;;;;;;;;5115891;28;20070;-91
2023/11/18 02:51:47;;;;;;;0.98;0.98;;;;;;;;;;5112184;28;20051;-92
2023/11/18 02:54:16;;;;;;;0.10;0.10;;;;;;;;;;5112918;28;20380;-91
2023/11/18 02:56:44;;;;;;;0.10;0.10;;;;;;;;;;5130292;28;20335;-92
2023/11/18 02:59:15;;;;;;;0.00;0.00;;;;;;;;;;5112192;28;20052;-92
2023/11/18 03:01:42;;;;;;;0.00;0.00;;;;;;;;;;5111536;28;20071;-91
2023/11/18 03:04:14;;;;;;;0.00;0.00;;;;;;;;;;5111989;28;20069;-92
2023/11/18 03:06:43;;;;;;;0.10;0.10;;;;;;;;;;5110276;28;20312;-92
2023/11/18 03:09:11;;;;;;;0.30;0.30;;;;;;;;;;5114746;28;20075;-91
2023/11/18 03:11:40;;;;;;;0.00;0.00;;;;;;;;;;5114886;28;20354;-92
2023/11/18 03:14:10;;;;;;;0.00;0.00;;;;;;;;;;5110179;28;20043;-91
2023/11/18 03:16:40;;;;;;;0.10;0.10;;;;;;;;;;5130761;28;20192;-91
2023/11/18 03:19:09;;;;;;;0.10;0.10;;;;;;;;;;5110012;28;20069;-91
2023/11/18 03:21:38;;;;;;;0.03;0.03;;;;;;;;;;5108240;28;20058;-91
2023/11/18 03:24:06;;;;;;;0.10;0.10;;;;;;;;;;5113031;27;20047;-91
2023/11/18 03:26:34;;;;;;;0.10;0.10;;;;;;;;;;5112886;28;20108;-89
2023/11/18 03:29:01;;;;;;;0.10;0.10;;;;;;;;;;5130683;28;20093;-90
2023/11/18 03:31:32;;;;;;;0.00;0.00;;;;;;;;;;5111976;28;20048;-91
2023/11/18 03:33:59;;;;;;;0.10;0.10;;;;;;;;;;5127802;28;20364;-92
2023/11/18 03:36:31;;;;;;;0.05;0.05;;;;;;;;;;5129237;28;20048;-91
2023/11/18 03:39:03;;;;;;;0.10;0.10;;;;;;;;;;5111617;28;20399;-91
2023/11/18 03:41:30;;;;;;;0.10;0.10;;;;;;;;;;5129600;28;20122;-90
2023/11/18 03:43:58;;;;;;;0.45;0.45;;;;;;;;;;5130460;27;20054;-90
2023/11/18 03:46:33;;;;;;;0.10;0.10;;;;;;;;;;5130647;28;20067;-91
2023/11/18 03:49:01;;;;;;;0.10;0.10;;;;;;;;;;5117310;27;20120;-88
2023/11/18 03:51:32;;;;;;;0.10;0.10;;;;;;;;;;5119586;28;20047;-91
2023/11/18 03:53:59;;;;;;;0.10;0.10;;;;;;;;;;5136717;27;20063;-90
2023/11/18 03:56:33;;;;;;;0.10;0.10;;;;;;;;;;5119066;28;20050;-92
2023/11/18 03:59:00;;;;;;;0.10;0.10;;;;;;;;;;5111708;28;20059;-91
2023/11/18 04:01:28;;;;;;;0.10;0.10;;;;;;;;;;5131114;27;20090;-91
2023/11/18 04:03:58;;;;;;;0.10;0.10;;;;;;;;;;5112103;28;20392;-91
2023/11/18 04:06:27;;;;;;;0.08;0.08;;;;;;;;;;5110389;28;20047;-91
2023/11/18 04:08:54;;;;;;;0.10;0.10;;;;;;;;;;5108121;28;20051;-91
2023/11/18 04:11:23;;;;;;;0.10;0.10;;;;;;;;;;5125560;28;20122;-92
2023/11/18 04:13:51;;;;;;;0.00;0.00;;;;;;;;;;5127083;28;20075;-91
2023/11/18 04:16:20;;;;;;;0.10;0.10;;;;;;;;;;5108679;28;20039;-91
2023/11/18 04:18:48;;;;;;;0.10;0.10;;;;;;;;;;5108215;28;20118;-91
2023/11/18 04:21:17;;;;;;;0.10;0.10;;;;;;;;;;5107456;28;20047;-92
2023/11/18 04:23:46;;;;;;;0.00;0.00;;;;;;;;;;5107522;28;20048;-91
2023/11/18 04:26:15;;;;;;;3.13;2.92;;;;;;;;;;5107784;28;20047;-92
2023/11/18 04:28:43;;;;;;;0.00;0.00;;;;;;;;;;5125103;28;20047;-92
2023/11/18 04:31:11;;;;;;;1.17;0.98;;;;;;;;;;5112789;27;20036;-91
2023/11/18 04:33:40;;;;;;;2.92;2.25;;;;;;;;;;5126563;28;20047;-90
2023/11/18 04:36:09;;;;;;;0.20;0.20;;;;;;;;;;5114628;28;20055;-91
2023/11/18 04:38:38;;;;;;;0.10;0.10;;;;;;;;;;5111861;28;20055;-91
2023/11/18 04:41:06;;;;;;;0.35;0.10;;;;;;;;;;5109456;28;20048;-92
2023/11/18 04:43:33;;;;;;;0.40;0.40;;;;;;;;;;5109441;28;20058;-91
2023/11/18 04:46:12;;;;;;;0.10;0.10;;;;;;;;;;5112452;28;20059;-90
2023/11/18 04:48:40;;;;;;;0.00;0.00;;;;;;;;;;5110674;28;20051;-92
2023/11/18 04:51:08;;;;;;;0.10;0.10;;;;;;;;;;5109858;28;20047;-91
2023/11/18 04:53:36;;;;;;;1.25;0.80;;;;;;;;;;5110042;28;20043;-93
2023/11/18 04:56:10;;;;;;;0.10;0.10;;;;;;;;;;5111351;28;20086;-91
2023/11/18 04:58:39;;;;;;;0.10;0.10;;;;;;;;;;5110077;28;20113;-91
2023/11/18 05:01:08;;;;;;;0.10;0.10;;;;;;;;;;5108897;28;20047;-90
2023/11/18 05:03:36;;;;;;;0.32;0.32;;;;;;;;;;5111093;28;20043;-91
2023/11/18 05:06:04;;;;;;;0.10;0.10;;;;;;;;;;5112289;27;20068;-92
2023/11/18 05:08:36;;;;;;;0.08;0.08;;;;;;;;;;5110251;28;20056;-92
2023/11/18 05:11:04;;;;;;;0.10;0.10;;;;;;;;;;5109231;28;20051;-91
2023/11/18 05:13:33;;;;;;;0.43;0.43;;;;;;;;;;5108394;28;20079;-91
2023/11/18 05:16:01;;;;;;;0.10;0.10;;;;;;;;;;5109565;28;20048;-91
2023/11/18 05:18:33;;;;;;;0.15;0.15;;;;;;;;;;5110934;28;20047;-92
2023/11/18 05:21:06;;;;;;;0.10;0.10;;;;;;;;;;5127250;28;20073;-92
2023/11/18 05:23:36;;;;;;;0.05;0.05;;;;;;;;;;5110336;28;20047;-91
2023/11/18 05:26:10;;;;;;;0.10;0.10;;;;;;;;;;5111652;28;20048;-91
2023/11/18 05:28:50;;;;;;;0.32;0.32;;;;;;;;;;5124511;27;20047;-91
2023/11/18 05:31:18;;;;;;;0.47;0.47;;;;;;;;;;5118718;28;20131;-92
2023/11/18 05:33:51;;;;;;;0.10;0.10;;;;;;;;;;5114026;28;20051;-91
2023/11/18 05:36:27;;;;;;;0.13;0.13;;;;;;;;;;5113203;28;20054;-92
2023/11/18 05:38:56;;;;;;;9.85;2.83;;;;;;;;;;5131812;28;20051;-91
2023/11/18 05:41:27;;;;;;;0.00;0.00;;;;;;;;;;5130572;28;20088;-90
2023/11/18 05:43:57;;;;;;;0.20;0.20;;;;;;;;;;5112328;28;20056;-91
2023/11/18 05:46:25;;;;;;;1.52;0.55;;;;;;;;;;5130324;28;20107;-90
2023/11/18 05:48:57;;;;;;;1.13;0.98;;;;;;;;;;5130035;28;20423;-91
2023/11/18 05:51:26;;;;;;;0.47;0.47;;;;;;;;;;5130025;27;20134;-92
2023/11/18 05:53:53;;;;;;;3.60;1.55;;;;;;;;;;5130884;28;20054;-91
2023/11/18 05:56:27;;;;;;;0.08;0.08;;;;;;;;;;5116677;28;20043;-92
2023/11/18 06:02:18;;;;;;;0.13;0.13;;;;;;;;;;5135188;27;20065;-90
2023/11/18 06:09:14;;;;;;;;;;;;;;;;;;;;;
2023/11/18 06:11:49;;;;;;;0.10;0.10;;;;;;;;;;5132386;27;20046;-89
2023/11/18 06:14:17;;;;;;;2.47;0.82;;;;;;;;;;5132874;27;20244;-91
2023/11/18 06:16:56;;;;;;;0.10;0.10;;;;;;;;;;5162616;22;20043;-92
2023/11/18 06:19:43;;;;;;;0.00;0.00;;;;;;;;;;5089393;28;20059;-91
2023/11/18 06:22:13;;;;;;;0.75;0.75;;;;;;;;;;5074277;28;20293;-92
2023/11/18 06:24:41;;;;;;;0.03;0.03;;;;;;;;;;5088567;28;20044;-91
2023/11/18 06:27:10;;;;;;;0.13;0.13;;;;;;;;;;5071028;28;20067;-91
2023/11/18 06:29:37;;;;;;;0.40;0.40;;;;;;;;;;5088651;28;20060;-91
2023/11/18 06:32:08;;;;;;;3.40;1.67;;;;;;;;;;5090071;28;20179;-93
2023/11/18 06:34:37;;;;;;;5.57;1.45;;;;;;;;;;5091855;28;20216;-90
2023/11/18 06:37:07;;;;;;;3.80;3.60;;;;;;;;;;5071273;28;20442;-91
2023/11/18 06:39:43;;;;;;;1.05;1.00;;;;;;;;;;5089267;28;20049;-91
2023/11/18 06:42:12;;;;;;;0.32;0.32;;;;;;;;;;5072180;28;20056;-91
2023/11/18 06:44:41;;;;;;;1.65;1.55;;;;;;;;;;5071695;28;20044;-92
2023/11/18 06:47:12;;;;;;;0.00;0.00;;;;;;;;;;5089369;28;20070;-90
2023/11/18 06:49:41;;;;;;;0.00;0.00;;;;;;;;;;5071647;28;20060;-90
2023/11/18 06:52:11;;;;;;;0.05;0.05;;;;;;;;;;5071273;28;20569;-91
2023/11/18 06:54:42;;;;;;;1.67;1.08;;;;;;;;;;5088084;28;20113;-91
2023/11/18 06:57:11;;;;;;;1.58;1.52;;;;;;;;;;5070449;28;20108;-92
2023/11/18 06:59:38;;;;;;;2.33;2.13;;;;;;;;;;5087887;28;20056;-92
2023/11/18 07:02:06;;;;;;;4.15;1.02;;;;;;;;;;5088762;28;20053;-91
2023/11/18 07:04:38;;;;;;;0.10;0.10;;;;;;;;;;5071819;28;20071;-92
2023/11/18 07:07:08;;;;;;;1.65;0.88;;;;;;;;;;5070852;28;20048;-91
2023/11/18 07:09:36;;;;;;;3.35;3.10;;;;;;;;;;5071206;28;20102;-91
2023/11/18 07:12:09;;;;;;;0.10;0.10;;;;;;;;;;5072178;28;20203;-91
2023/11/18 07:14:39;;;;;;;3.03;2.40;;;;;;;;;;5072118;28;20052;-90
2023/11/18 07:17:08;;;;;;;1.17;1.17;;;;;;;;;;5071265;28;20048;-90
2023/11/18 07:19:37;;;;;;;0.03;0.03;;;;;;;;;;5088626;28;20072;-90
2023/11/18 07:25:28;;;;;;;0.10;0.10;;;;;;;;;;5095766;28;20027;-90
2023/11/18 07:27:59;;;;;;;0.20;0.20;;;;;;;;;;5077165;28;20044;-91
2023/11/18 07:30:30;;;;;;;8.05;3.03;;;;;;;;;;5087532;28;20066;-91
2023/11/18 07:33:11;;;;;;;0.13;0.13;;;;;;;;;;5069890;28;20107;-91
2023/11/18 07:35:48;;;;;;;4.15;3.80;;;;;;;;;;5070480;28;20064;-91
2023/11/18 07:38:20;;;;;;;3.35;1.75;;;;;;;;;;5089143;28;20155;-91
2023/11/18 07:40:56;;;;;;;0.10;0.10;;;;;;;;;;5087472;28;20041;-91
2023/11/18 07:43:28;;;;;;;5.53;2.03;;;;;;;;;;5086378;28;20395;-91
2023/11/18 07:46:03;;;;;;;6.32;3.22;;;;;;;;;;5068710;28;20060;-89
2023/11/18 07:48:36;;;;;;;3.53;2.03;;;;;;;;;;5069582;28;20048;-88
2023/11/18 07:51:08;;;;;;;;;;;;;;;;;;5084649;28;20139;-89
2023/11/18 07:53:42;;;;;;;2.75;2.55;;;;;;;;;;5069858;28;19939;-89
2023/11/18 07:56:23;;;;;;;0.20;0.20;;;;;;;;;;5063846;28;20064;-89
2023/11/18 07:58:54;;;;;;;15.35;5.97;;;;;;;;;;5067243;28;20052;-89
2023/11/18 16:05:25;;;;;;;0.98;0.93;;;;;;;;;;5072037;28;20044;-91
2023/11/18 16:08:24;;;;;;;;;;;;;;;;;;;;;
2023/11/18 16:11:19;;;;;;;5.38;2.65;;;;;;;;;;5065783;28;20049;-91
2023/11/18 16:14:05;;;;;;;3.67;2.23;;;;;;;;;;5048811;28;20056;-91
2023/11/18 16:17:06;;;;;;;0.80;0.75;;;;;;;;;;5063124;28;20052;-91
2023/11/18 16:19:50;;;;;;;3.30;2.17;;;;;;;;;;5048412;28;20118;-91
2023/11/18 16:23:04;;;;;;;1.13;1.13;;;;;;;;;;5044916;28;20037;-91
2023/11/18 16:25:43;;;;;;;4.68;3.47;;;;;;;;;;5028550;28;20065;-91
2023/11/18 16:28:29;;;;;;;0.25;0.25;;;;;;;;;;5029899;28;20113;-90
2023/11/18 16:31:11;;;;;;;4.22;2.28;;;;;;;;;;5049310;28;20057;-90
2023/11/18 16:33:48;;;;;;;3.65;3.20;;;;;;;;;;5031964;28;20049;-91
2023/11/18 16:36:30;;;;;;;0.77;0.77;;;;;;;;;;5043768;28;20064;-92
2023/11/18 16:39:02;;;;;;;0.10;0.10;;;;;;;;;;5027999;28;20056;-91
2023/11/18 16:41:49;;;;;;;1.30;1.20;;;;;;;;;;5020811;28;20249;-90
2023/11/18 16:44:33;;;;;;;5.88;0.88;;;;;;;;;;5029866;28;20083;-91
2023/11/18 16:47:25;;;;;;;2.38;1.38;;;;;;;;;;5028299;28;20080;-91
2023/11/18 16:50:10;;;;;;;1.48;0.85;;;;;;;;;;5042806;28;20400;-91
2023/11/18 16:53:04;;;;;;;4.88;2.35;;;;;;;;;;5044081;28;20126;-91
2023/11/18 16:56:02;;;;;;;0.20;0.20;;;;;;;;;;5027907;28;20045;-90
2023/11/18 16:58:50;;;;;;;0.00;0.00;;;;;;;;;;5028284;28;20056;-90
2023/11/18 17:01:34;;;;;;;4.75;2.95;;;;;;;;;;5028555;28;20053;-91
2023/11/18 17:04:20;;;;;;;1.02;0.30;;;;;;;;;;5027496;28;20065;-91
2023/11/18 17:07:09;;;;;;;4.65;1.33;;;;;;;;;;5027333;28;20187;-91
2023/11/18 17:09:48;;;;;;;3.63;2.47;;;;;;;;;;5024584;28;20052;-91
2023/11/18 17:12:47;;;;;;;0.30;0.30;;;;;;;;;;5038424;28;20140;-91
2023/11/18 17:15:18;;;;;;;1.20;0.98;;;;;;;;;;5025753;28;20053;-91
2023/11/18 17:18:02;;;;;;;2.47;0.30;;;;;;;;;;5024414;28;20061;-91
2023/11/18 17:20:41;;;;;;;1.45;1.05;;;;;;;;;;5043487;28;20049;-90
2023/11/18 17:23:18;;;;;;;2.20;1.73;;;;;;;;;;5029215;28;20048;-91
2023/11/18 17:25:49;;;;;;;3.45;1.15;;;;;;;;;;5029090;28;20232;-91
2023/11/18 17:28:25;;;;;;;5.43;2.58;;;;;;;;;;5030967;28;20117;-90
2023/11/18 17:30:55;;;;;;;0.30;0.30;;;;;;;;;;5029079;28;20065;-91
2023/11/18 17:33:33;;;;;;;0.08;0.08;;;;;;;;;;5029012;28;20164;-92
2023/11/18 17:36:19;;;;;;;1.83;0.88;;;;;;;;;;5053916;28;20049;-92
2023/11/18 17:38:49;;;;;;;5.45;2.35;;;;;;;;;;5031277;28;20134;-91
2023/11/18 17:41:21;;;;;;;0.52;0.52;;;;;;;;;;5030510;28;20430;-89
2023/11/18 17:43:50;;;;;;;0.40;0.40;;;;;;;;;;5028771;28;20049;-91
2023/11/18 17:46:22;;;;;;;3.50;0.90;;;;;;;;;;5031232;28;20049;-92
2023/11/18 17:49:04;;;;;;;0.52;0.52;;;;;;;;;;5033403;28;20055;-91
2023/11/18 17:51:42;;;;;;;11.73;3.40;;;;;;;;;;5029774;28;20057;-90
2023/11/18 17:54:26;;;;;;;6.88;2.05;;;;;;;;;;5034038;28;20049;-91
2023/11/18 17:56:56;;;;;;;4.35;2.15;;;;;;;;;;5030129;28;20050;-92
2023/11/18 17:59:28;;;;;;;4.95;2.72;;;;;;;;;;5047136;28;20065;-92
2023/11/18 18:02:11;;;;;;;3.35;2.35;;;;;;;;;;5045217;28;20141;-90
2023/11/18 18:04:41;;;;;;;2.40;1.25;;;;;;;;;;5031526;28;20080;-91
2023/11/18 18:07:13;;;;;;;6.70;2.72;;;;;;;;;;5030732;28;20049;-91
2023/11/18 18:09:48;;;;;;;2.00;1.45;;;;;;;;;;5035234;28;20054;-91
2023/11/18 18:12:38;;;;;;;0.90;0.90;;;;;;;;;;5035863;28;20390;-92
2023/11/18 18:15:26;;;;;;;4.50;1.48;;;;;;;;;;5050317;28;20096;-91
2023/11/18 18:18:13;;;;;;;;;;;;;;;;;;;;;
2023/11/18 18:20:57;;;;;;;3.15;1.52;;;;;;;;;;5047376;28;20060;-91
2023/11/18 18:23:40;;;;;;;1.65;1.35;;;;;;;;;;5011471;28;20061;-91
2023/11/18 18:26:22;;;;;;;1.73;1.63;;;;;;;;;;5046478;28;20104;-93
2023/11/18 18:28:51;;;;;;;2.55;1.50;;;;;;;;;;5030773;28;20109;-90
2023/11/18 18:31:37;;;;;;;2.60;1.20;;;;;;;;;;5027748;28;20379;-91
2023/11/18 18:37:43;;;;;;;7.32;3.60;;;;;;;;;;5056876;28;20057;-91
2023/11/18 18:40:17;;;;;;;;;;;;;;;;;;5034916;28;20068;-92
2023/11/18 18:42:49;;;;;;;3.05;1.60;;;;;;;;;;5050412;28;19940;-91
2023/11/18 18:45:20;;;;;;;2.15;1.85;;;;;;;;;;5031945;28;20060;-90
2023/11/18 18:47:52;;;;;;;6.32;2.40;;;;;;;;;;5030115;28;20099;-91
2023/11/18 18:50:22;;;;;;;1.27;1.17;;;;;;;;;;5030922;28;20076;-90
2023/11/18 18:52:52;;;;;;;0.93;0.60;;;;;;;;;;5029401;28;20398;-91
2023/11/18 18:55:34;;;;;;;3.50;1.92;;;;;;;;;;5030327;28;20046;-90
2023/11/18 18:58:03;;;;;;;0.32;0.32;;;;;;;;;;5030073;28;20053;-91
2023/11/18 19:00:44;;;;;;;0.85;0.85;;;;;;;;;;5030940;28;20077;-90
2023/11/18 19:03:15;;;;;;;4.95;2.50;;;;;;;;;;5035798;28;20198;-91
2023/11/18 19:05:44;;;;;;;2.92;1.73;;;;;;;;;;5032538;28;20045;-89
2023/11/18 19:08:16;;;;;;;0.40;0.17;;;;;;;;;;5028885;28;20049;-91
2023/11/18 19:10:57;;;;;;;4.78;1.85;;;;;;;;;;5030191;28;20198;-90
2023/11/18 19:13:37;;;;;;;3.65;2.88;;;;;;;;;;5018449;28;20117;-90
2023/11/18 19:16:07;;;;;;;0.50;0.50;;;;;;;;;;5030067;28;20049;-92
2023/11/18 19:18:38;;;;;;;5.38;2.65;;;;;;;;;;5045674;28;20129;-90
2023/11/18 19:21:10;;;;;;;1.50;1.40;;;;;;;;;;5029803;28;20053;-91
2023/11/18 19:23:45;;;;;;;1.88;1.10;;;;;;;;;;5029633;28;20053;-91
2023/11/18 19:26:19;;;;;;;1.30;0.63;;;;;;;;;;5030245;28;20049;-91
2023/11/18 19:28:50;;;;;;;3.92;3.08;;;;;;;;;;5030077;28;20057;-91
2023/11/18 19:31:29;;;;;;;2.15;1.52;;;;;;;;;;5032871;28;20058;-91
2023/11/18 19:34:09;;;;;;;0.20;0.20;;;;;;;;;;5031115;28;20055;-91
2023/11/18 19:37:28;;;;;;;3.03;1.60;;;;;;;;;;5124974;27;20123;-90
2023/11/18 19:40:10;;;;;;;6.63;2.20;;;;;;;;;;5126873;28;20056;-90
2023/11/18 19:42:53;;;;;;;1.70;1.60;;;;;;;;;;5125725;28;20056;-89
2023/11/18 19:45:36;;;;;;;0.45;0.35;;;;;;;;;;5125790;28;20063;-91
2023/11/18 19:48:07;;;;;;;3.28;2.33;;;;;;;;;;5125539;28;20071;-92
2023/11/18 19:50:37;;;;;;;2.28;1.23;;;;;;;;;;5124817;28;20082;-91
2023/11/18 19:53:09;;;;;;;5.75;2.60;;;;;;;;;;5108489;28;20083;-91
2023/11/18 19:55:44;;;;;;;0.57;0.43;;;;;;;;;;5126950;28;20408;-91
2023/11/18 19:58:26;;;;;;;0.55;0.52;;;;;;;;;;5122180;28;20098;-90
2023/11/18 20:00:55;;;;;;;4.50;2.72;;;;;;;;;;5123630;28;20375;-90
2023/11/18 20:03:25;;;;;;;8.32;2.97;;;;;;;;;;5124939;28;20052;-90
2023/11/18 20:05:54;;;;;;;2.95;2.20;;;;;;;;;;5125507;28;20079;-91
2023/11/18 20:08:36;;;;;;;1.90;0.95;;;;;;;;;;5122532;28;20056;-91
2023/11/18 20:11:23;;;;;;;1.92;1.70;;;;;;;;;;5124862;28;20048;-91
2023/11/18 20:14:05;;;;;;;0.70;0.68;;;;;;;;;;5123341;28;20086;-91
2023/11/18 20:16:49;;;;;;;0.00;0.00;;;;;;;;;;5124291;28;20071;-92
2023/11/18 20:19:21;;;;;;;2.08;1.88;;;;;;;;;;5127215;28;20054;-90
2023/11/18 20:21:55;;;;;;;0.88;0.35;;;;;;;;;;5126887;28;20064;-91
2023/11/18 20:24:28;;;;;;;0.30;0.30;;;;;;;;;;5125068;28;20051;-90
2023/11/18 20:27:10;;;;;;;2.20;1.20;;;;;;;;;;5124688;28;20052;-91
2023/11/18 20:29:41;;;;;;;1.23;0.80;;;;;;;;;;5126884;28;20039;-91
2023/11/18 20:32:24;;;;;;;0.98;0.98;;;;;;;;;;5125787;28;20054;-90
2023/11/18 20:35:08;;;;;;;2.67;1.25;;;;;;;;;;5126176;28;20128;-91
2023/11/18 20:37:52;;;;;;;2.55;1.27;;;;;;;;;;5126159;28;20081;-89
2023/11/18 20:40:25;;;;;;;3.72;2.00;;;;;;;;;;5128129;28;20119;-90
2023/11/18 20:42:58;;;;;;;2.35;1.90;;;;;;;;;;5128997;28;20069;-90
2023/11/18 20:45:31;;;;;;;3.97;1.70;;;;;;;;;;5133380;28;20103;-91
2023/11/18 20:48:07;;;;;;;4.65;2.42;;;;;;;;;;5123810;28;20051;-91
2023/11/18 20:50:50;;;;;;;0.57;0.57;;;;;;;;;;5122460;28;20045;-90
2023/11/18 20:53:21;;;;;;;2.83;1.17;;;;;;;;;;5121671;28;20046;-91
2023/11/18 20:56:03;;;;;;;3.13;2.45;;;;;;;;;;5121726;28;20059;-91
2023/11/18 20:58:39;;;;;;;0.10;0.10;;;;;;;;;;5121677;28;20047;-91
2023/11/18 21:01:20;;;;;;;3.13;2.28;;;;;;;;;;5115890;28;20057;-90
2023/11/18 21:04:03;;;;;;;0.52;0.52;;;;;;;;;;5130150;28;20067;-92
2023/11/18 21:06:35;;;;;;;1.73;1.60;;;;;;;;;;5132024;28;20070;-90
2023/11/18 21:09:11;;;;;;;0.77;0.60;;;;;;;;;;5119684;28;20052;-90
2023/11/18 21:11:58;;;;;;;0.65;0.65;;;;;;;;;;5136597;28;20044;-90
2023/11/18 21:14:47;;;;;;;0.80;0.57;;;;;;;;;;5115114;28;20074;-91
2023/11/18 21:17:29;;;;;;;0.20;0.20;;;;;;;;;;5112933;28;20569;-90
2023/11/18 21:20:14;;;;;;;0.20;0.20;;;;;;;;;;5112879;28;20047;-90
2023/11/18 21:22:45;;;;;;;1.50;0.05;;;;;;;;;;5129521;28;20139;-91
2023/11/18 21:25:27;;;;;;;2.20;1.20;;;;;;;;;;5112770;28;20058;-90
2023/11/18 21:27:58;;;;;;;0.20;0.20;;;;;;;;;;5112284;28;20145;-91
2023/11/18 21:30:39;;;;;;;1.00;0.95;;;;;;;;;;5112362;28;20288;-91
2023/11/18 21:33:22;;;;;;;15.82;0.55;;;;;;;;;;5128411;28;20116;-90
2023/11/18 21:35:52;;;;;;;1.55;1.27;;;;;;;;;;5115812;28;20067;-90
2023/11/18 21:38:37;;;;;;;0.45;0.45;;;;;;;;;;5116739;28;20053;-89
2023/11/18 21:41:11;;;;;;;1.92;1.20;;;;;;;;;;5130529;28;20055;-90
2023/11/18 21:43:44;;;;;;;1.77;1.60;;;;;;;;;;5111432;28;20062;-90
2023/11/18 21:46:18;;;;;;;0.08;0.08;;;;;;;;;;5111772;28;20056;-90
2023/11/18 21:48:45;;;;;;;0.20;0.20;;;;;;;;;;5129001;28;20049;-90
2023/11/18 21:51:26;;;;;;;1.33;0.98;;;;;;;;;;5109711;28;20100;-91
2023/11/18 21:54:07;;;;;;;3.63;1.65;;;;;;;;;;5109517;28;20052;-90
2023/11/18 21:56:37;;;;;;;0.10;0.10;;;;;;;;;;5114955;28;20081;-92
2023/11/18 21:59:04;;;;;;;0.00;0.00;;;;;;;;;;5114253;28;20043;-90
2023/11/18 22:01:36;;;;;;;0.55;0.55;;;;;;;;;;5112693;28;20208;-90
2023/11/18 22:04:03;;;;;;;0.38;0.38;;;;;;;;;;5110467;28;20071;-89
2023/11/18 22:06:33;;;;;;;0.00;0.00;;;;;;;;;;5111714;28;20142;-90
2023/11/18 22:09:16;;;;;;;0.08;0.08;;;;;;;;;;5109948;28;20061;-90
2023/11/18 22:11:50;;;;;;;0.08;0.08;;;;;;;;;;5109612;28;20078;-90
2023/11/18 22:14:24;;;;;;;0.30;0.20;;;;;;;;;;5127896;28;20070;-89
2023/11/18 22:17:07;;;;;;;0.30;0.30;;;;;;;;;;5127701;28;20035;-90
2023/11/18 22:19:49;;;;;;;0.00;0.00;;;;;;;;;;5111925;28;20053;-90
2023/11/18 22:22:19;;;;;;;0.57;0.57;;;;;;;;;;5126399;28;20411;-91
2023/11/18 22:24:47;;;;;;;0.10;0.10;;;;;;;;;;5110377;28;20043;-90
2023/11/18 22:27:17;;;;;;;0.03;0.03;;;;;;;;;;5109897;28;20392;-90
2023/11/18 22:29:49;;;;;;;0.00;0.00;;;;;;;;;;5111459;28;20116;-90
2023/11/18 22:32:30;;;;;;;0.20;0.20;;;;;;;;;;5124941;28;20062;-90
2023/11/18 22:35:11;;;;;;;0.70;0.52;;;;;;;;;;5110958;28;20119;-90
2023/11/18 22:37:39;;;;;;;0.32;0.32;;;;;;;;;;5109856;28;20074;-90
2023/11/18 22:40:16;;;;;;;0.10;0.10;;;;;;;;;;5111806;28;20189;-90
2023/11/18 22:42:46;;;;;;;0.17;0.17;;;;;;;;;;5109826;28;20119;-91
2023/11/18 22:45:37;;;;;;;0.20;0.20;;;;;;;;;;5110986;28;20415;-90
2023/11/18 22:48:12;;;;;;;0.08;0.08;;;;;;;;;;5127997;28;20058;-90
2023/11/18 22:50:44;;;;;;;0.00;0.00;;;;;;;;;;5111530;28;20093;-90
2023/11/18 22:53:16;;;;;;;0.10;0.10;;;;;;;;;;5116819;28;20127;-90
2023/11/18 22:55:53;;;;;;;0.00;0.00;;;;;;;;;;5115069;28;20058;-90
2023/11/18 22:58:39;;;;;;;0.10;0.10;;;;;;;;;;5113894;28;20051;-91
2023/11/18 23:01:13;;;;;;;0.20;0.20;;;;;;;;;;5129205;28;20059;-91
2023/11/18 23:03:47;;;;;;;;;;;;;;;;;;5113822;28;20052;-91
2023/11/18 23:06:23;;;;;;;0.03;0.03;;;;;;;;;;5110266;28;19928;-90
2023/11/18 23:09:12;;;;;;;0.17;0.17;;;;;;;;;;5110194;28;20063;-90
2023/11/18 23:11:40;;;;;;;0.10;0.10;;;;;;;;;;5109558;28;20051;-90
2023/11/18 23:14:21;;;;;;;0.00;0.00;;;;;;;;;;5110557;28;20074;-90
2023/11/18 23:17:02;;;;;;;0.00;0.00;;;;;;;;;;5125717;28;20059;-90
2023/11/18 23:19:34;;;;;;;;;;;;;;;;;;5113629;28;20031;-91
2023/11/18 23:22:15;;;;;;;0.50;0.50;;;;;;;;;;5112576;28;20000;-90
2023/11/18 23:24:47;;;;;;;0.10;0.10;;;;;;;;;;5116400;28;20058;-89
2023/11/18 23:27:31;;;;;;;0.00;0.00;;;;;;;;;;5105491;28;20058;-91
2023/11/18 23:39:06;;;;;;;0.43;0.43;;;;;;;;;;5085774;28;20052;-90
2023/11/18 23:41:39;;;;;;;0.35;0.30;;;;;;;;;;5074721;28;20059;-90
2023/11/18 23:44:23;;;;;;;0.25;0.25;;;;;;;;;;5077790;28;20108;-90
2023/11/18 23:46:52;;;;;;;1.10;0.73;;;;;;;;;;5069788;28;20052;-90
2023/11/18 23:49:20;;;;;;;2.17;0.50;;;;;;;;;;5069824;28;20058;-90
2023/11/18 23:51:49;;;;;;;0.10;0.10;;;;;;;;;;5070818;28;20095;-91
2023/11/18 23:54:23;;;;;;;1.17;1.10;;;;;;;;;;5070180;28;20052;-91
2023/11/18 23:56:52;;;;;;;0.00;0.00;;;;;;;;;;5087695;28;20116;-90
2023/11/18 23:59:23;;;;;;;0.50;0.50;;;;;;;;;;5069316;28;20048;-90
